createdAt,value
2022-12-06T00:05:55.200Z,1.08
2022-12-06T00:11:33.705Z,1.67
2022-12-06T00:14:13.990Z,1.90
2022-12-06T00:16:49.725Z,1.45
2022-12-06T00:19:27.136Z,1.42
2022-12-06T00:22:21.064Z,1.63
2022-12-06T00:24:49.490Z,1.13
2022-12-06T00:27:20.732Z,1.05
2022-12-06T00:29:48.868Z,1.80
2022-12-06T00:32:24.144Z,1.55
2022-12-06T00:34:53.300Z,1.70
2022-12-06T00:37:21.472Z,1.90
2022-12-06T00:39:59.666Z,2.05
2022-12-06T00:42:39.934Z,1.92
2022-12-06T00:45:14.685Z,2.28
2022-12-06T00:47:47.767Z,1.95
2022-12-06T00:50:27.088Z,2.05
2022-12-06T00:52:58.756Z,2.10
2022-12-06T00:55:35.740Z,1.88
2022-12-06T00:58:09.391Z,1.83
2022-12-06T01:00:39.456Z,2.17
2022-12-06T01:05:53.607Z,1.92
2022-12-06T01:08:21.910Z,2.13
2022-12-06T01:10:56.438Z,1.90
2022-12-06T01:13:27.334Z,2.30
2022-12-06T01:16:01.096Z,2.13
2022-12-06T01:18:42.446Z,1.98
2022-12-06T01:21:14.456Z,2.22
2022-12-06T01:23:43.105Z,2.67
2022-12-06T01:26:18.850Z,2.75
2022-12-06T01:28:47.650Z,2.38
2022-12-06T01:31:16.523Z,2.67
2022-12-06T01:33:51.573Z,2.20
2022-12-06T01:36:22.741Z,2.00
2022-12-06T01:38:58.771Z,1.42
2022-12-06T01:41:28.793Z,2.22
2022-12-06T01:44:04.068Z,2.00
2022-12-06T01:46:44.624Z,2.50
2022-12-06T01:52:05.580Z,1.55
2022-12-06T01:54:34.058Z,1.38
2022-12-06T01:57:11.161Z,1.08
2022-12-06T01:59:40.669Z,0.82
2022-12-06T02:02:20.045Z,1.13
2022-12-06T02:04:51.864Z,1.83
2022-12-06T02:11:35.482Z,1.38
2022-12-06T02:14:16.813Z,2.40
2022-12-06T02:17:22.443Z,2.05
2022-12-06T02:20:13.867Z,2.60
2022-12-06T02:23:30.389Z,2.45
2022-12-06T02:27:08.979Z,1.73
2022-12-06T02:30:05.707Z,2.13
2022-12-06T02:32:59.477Z,1.63
2022-12-06T02:35:40.472Z,1.30
2022-12-06T02:38:13.050Z,1.73
2022-12-06T02:40:56.896Z,1.63
2022-12-06T02:43:35.353Z,1.48
2022-12-06T02:46:08.076Z,1.75
2022-12-06T02:48:38.326Z,1.33
2022-12-06T02:51:14.214Z,1.77
2022-12-06T02:53:54.654Z,1.70
2022-12-06T02:56:26.726Z,1.95
2022-12-06T02:58:54.509Z,1.30
2022-12-06T03:01:42.382Z,1.15
2022-12-06T03:04:49.846Z,1.08
2022-12-06T03:08:00.722Z,1.20
2022-12-06T03:10:46.513Z,0.85
2022-12-06T03:13:41.867Z,0.95
2022-12-06T03:16:39.487Z,0.47
2022-12-06T03:19:15.134Z,1.30
2022-12-06T03:21:54.195Z,1.13
2022-12-06T03:24:38.057Z,1.05
2022-12-06T03:27:12.086Z,1.38
2022-12-06T03:29:46.379Z,1.10
2022-12-06T03:32:21.359Z,1.40
2022-12-06T03:34:52.405Z,1.50
2022-12-06T03:37:27.623Z,1.52
2022-12-06T03:40:17.502Z,1.40
2022-12-06T03:42:54.000Z,1.50
2022-12-06T03:45:33.534Z,1.73
2022-12-06T03:48:15.247Z,1.23
2022-12-06T03:50:58.170Z,1.30
2022-12-06T03:53:28.694Z,1.17
2022-12-06T03:55:59.875Z,1.00
2022-12-06T03:58:39.519Z,1.10
2022-12-06T04:01:14.448Z,1.20
2022-12-06T04:03:52.211Z,1.23
2022-12-06T04:06:21.765Z,1.02
2022-12-06T04:12:46.300Z,0.63
2022-12-06T04:15:26.916Z,0.82
2022-12-06T04:18:15.881Z,1.15
2022-12-06T04:21:23.971Z,1.30
2022-12-06T04:23:55.096Z,0.90
2022-12-06T04:26:22.843Z,0.90
2022-12-06T04:29:11.383Z,0.77
2022-12-06T04:32:00.400Z,1.30
2022-12-06T04:34:49.656Z,0.90
2022-12-06T04:37:37.994Z,0.60
2022-12-06T04:40:08.531Z,0.50
2022-12-06T04:42:55.320Z,0.50
2022-12-06T04:45:23.155Z,0.50
2022-12-06T04:47:51.683Z,0.30
2022-12-06T04:50:22.163Z,0.35
2022-12-06T04:52:50.079Z,0.52
2022-12-06T04:55:19.444Z,0.50
2022-12-06T04:57:51.872Z,0.47
2022-12-06T05:00:19.377Z,0.45
2022-12-06T05:02:46.851Z,0.30
2022-12-06T05:05:14.683Z,0.38
2022-12-06T05:07:53.613Z,0.50
2022-12-06T05:10:28.285Z,0.40
2022-12-06T05:12:58.245Z,0.40
2022-12-06T05:15:33.449Z,0.30
2022-12-06T05:18:01.603Z,0.22
2022-12-06T05:20:28.681Z,0.40
2022-12-06T05:22:56.073Z,0.40
2022-12-06T05:25:29.122Z,0.30
2022-12-06T05:28:10.139Z,0.60
2022-12-06T05:30:38.527Z,0.60
2022-12-06T05:33:17.368Z,0.95
2022-12-06T05:35:47.984Z,1.10
2022-12-06T05:38:23.509Z,1.13
2022-12-06T05:41:05.607Z,1.02
2022-12-06T05:43:33.179Z,1.10
2022-12-06T05:46:04.015Z,1.00
2022-12-06T05:48:52.116Z,1.30
2022-12-06T05:51:20.025Z,1.92
2022-12-06T05:54:00.276Z,2.22
2022-12-06T05:57:03.184Z,1.98
2022-12-06T05:59:30.209Z,1.80
2022-12-06T06:01:57.280Z,2.13
2022-12-06T06:04:25.601Z,2.03
2022-12-06T06:06:53.443Z,2.03
2022-12-06T06:09:21.048Z,1.70
2022-12-06T06:11:48.471Z,1.60
2022-12-06T06:14:16.159Z,2.20
2022-12-06T06:16:43.547Z,1.83
2022-12-06T06:19:11.073Z,4.30
2022-12-06T06:21:38.417Z,2.15
2022-12-06T06:24:05.733Z,2.53
2022-12-06T06:26:32.924Z,2.05
2022-12-06T06:29:00.216Z,2.40
2022-12-06T06:31:27.586Z,2.80
2022-12-06T06:33:54.690Z,3.30
2022-12-06T06:36:21.660Z,3.00
2022-12-06T06:38:48.624Z,1.95
2022-12-06T06:41:15.724Z,3.65
2022-12-06T06:43:43.168Z,2.95
2022-12-06T06:46:10.694Z,3.20
2022-12-06T06:48:39.690Z,2.70
2022-12-06T06:51:10.110Z,2.50
2022-12-06T06:53:37.537Z,3.08
2022-12-06T06:56:05.651Z,3.30
2022-12-06T06:58:32.899Z,2.85
2022-12-06T07:01:02.115Z,2.33
2022-12-06T07:03:29.494Z,2.92
2022-12-06T07:05:59.068Z,3.47
2022-12-06T07:08:28.106Z,4.00
2022-12-06T07:10:55.483Z,3.42
2022-12-06T07:13:24.529Z,2.92
2022-12-06T07:15:52.048Z,2.85
2022-12-06T07:18:19.985Z,2.67
2022-12-06T07:20:48.288Z,2.47
2022-12-06T07:23:15.862Z,2.95
2022-12-06T07:25:42.950Z,2.75
2022-12-06T07:28:09.870Z,3.67
2022-12-06T07:30:36.816Z,3.50
2022-12-06T07:33:03.812Z,3.55
2022-12-06T07:35:48.873Z,3.47
2022-12-06T07:38:17.980Z,3.85
2022-12-06T07:43:50.132Z,2.25
2022-12-06T07:46:17.399Z,3.42
2022-12-06T07:48:44.674Z,2.85
2022-12-06T07:51:11.524Z,2.67
2022-12-06T07:53:38.569Z,2.10
2022-12-06T07:56:07.510Z,2.63
2022-12-06T07:58:34.573Z,2.47
2022-12-06T08:01:03.702Z,3.38
2022-12-06T08:03:31.027Z,3.88
2022-12-06T08:05:58.049Z,4.05
2022-12-06T08:08:28.708Z,3.35
2022-12-06T08:10:59.909Z,3.45
2022-12-06T08:13:27.534Z,3.53
2022-12-06T08:15:55.090Z,3.92
2022-12-06T08:18:22.806Z,2.08
2022-12-06T08:20:50.997Z,3.38
2022-12-06T08:23:17.755Z,2.97
2022-12-06T08:25:44.921Z,2.83
2022-12-06T08:28:11.942Z,2.95
2022-12-06T08:30:42.088Z,2.65
2022-12-06T08:35:38.723Z,2.85
2022-12-06T08:38:05.657Z,2.83
2022-12-06T08:40:32.687Z,2.67
2022-12-06T08:43:00.052Z,2.22
2022-12-06T08:45:27.237Z,2.17
2022-12-06T08:47:54.322Z,2.45
2022-12-06T08:50:21.547Z,3.25
2022-12-06T08:52:48.498Z,3.60
2022-12-06T08:55:15.388Z,3.78
2022-12-06T08:57:42.637Z,3.47
2022-12-06T09:00:10.990Z,3.30
2022-12-06T09:02:42.310Z,3.30
2022-12-06T09:05:09.579Z,3.13
2022-12-06T09:07:36.572Z,3.00
2022-12-06T09:10:05.382Z,2.75
2022-12-06T09:12:32.422Z,2.20
2022-12-06T09:14:59.486Z,3.30
2022-12-06T09:17:26.342Z,2.45
2022-12-06T09:19:53.235Z,2.92
2022-12-06T09:22:20.537Z,2.35
2022-12-06T09:24:47.834Z,2.65
2022-12-06T09:27:14.831Z,2.65
2022-12-06T09:29:41.758Z,2.42
2022-12-06T09:32:08.826Z,2.17
2022-12-06T09:34:35.758Z,1.60
2022-12-06T09:37:09.558Z,3.00
2022-12-06T09:39:44.111Z,2.20
2022-12-06T09:42:18.504Z,2.00
2022-12-06T09:45:04.275Z,2.15
2022-12-06T09:47:54.282Z,3.05
2022-12-06T09:50:29.534Z,2.25
2022-12-06T09:53:02.316Z,2.53
2022-12-06T09:55:56.070Z,2.88
2022-12-06T09:58:38.979Z,2.47
2022-12-06T10:01:24.294Z,2.17
2022-12-06T10:04:05.930Z,2.60
2022-12-06T10:07:04.477Z,2.30
2022-12-06T10:09:40.765Z,2.33
2022-12-06T10:15:16.554Z,2.17
2022-12-06T10:17:58.967Z,1.73
2022-12-06T10:20:45.639Z,2.00
2022-12-06T10:24:01.696Z,1.75
2022-12-06T10:26:47.665Z,2.40
2022-12-06T10:29:33.134Z,2.30
2022-12-06T10:32:02.904Z,1.52
2022-12-06T10:34:58.144Z,1.73
2022-12-06T10:37:52.938Z,1.65
2022-12-06T10:40:35.019Z,1.70
2022-12-06T10:43:44.160Z,2.10
2022-12-06T10:46:52.791Z,2.05
2022-12-06T10:49:38.650Z,1.98
2022-12-06T10:52:42.842Z,1.85
2022-12-06T10:55:19.467Z,1.77
2022-12-06T10:58:07.572Z,1.88
2022-12-06T11:00:56.307Z,2.33
2022-12-06T11:06:10.211Z,1.65
2022-12-06T11:09:17.051Z,1.50
2022-12-06T11:11:45.291Z,1.77
2022-12-06T11:14:23.603Z,2.00
2022-12-06T11:17:03.820Z,1.65
2022-12-06T11:19:31.406Z,1.42
2022-12-06T11:22:33.519Z,1.17
2022-12-06T11:25:06.472Z,1.63
2022-12-06T11:27:41.091Z,1.67
2022-12-06T11:30:20.330Z,1.42
2022-12-06T11:32:51.273Z,1.38
2022-12-06T11:35:23.150Z,1.70
2022-12-06T11:37:54.867Z,1.58
2022-12-06T11:40:36.534Z,1.45
2022-12-06T11:43:08.291Z,1.55
2022-12-06T11:45:39.504Z,1.60
2022-12-06T11:48:21.902Z,1.63
2022-12-06T11:50:51.043Z,2.25
2022-12-06T11:54:01.419Z,2.40
2022-12-06T11:56:31.590Z,2.55
2022-12-06T11:59:21.957Z,2.70
2022-12-06T12:01:50.804Z,3.10
2022-12-06T12:04:39.688Z,3.25
2022-12-06T12:09:44.531Z,2.88
2022-12-06T12:12:22.666Z,3.08
2022-12-06T12:15:17.353Z,3.25
2022-12-06T12:17:51.692Z,3.60
2022-12-06T12:20:26.711Z,3.47
2022-12-06T12:23:13.894Z,3.33
2022-12-06T12:25:43.604Z,2.70
2022-12-06T12:28:26.901Z,3.60
2022-12-06T12:30:56.253Z,2.95
2022-12-06T12:33:25.064Z,3.47
2022-12-06T12:36:14.167Z,3.83
2022-12-06T12:38:53.819Z,4.32
2022-12-06T12:41:40.471Z,3.60
2022-12-06T12:44:37.195Z,3.45
2022-12-06T12:47:18.723Z,3.20
2022-12-06T12:50:02.431Z,3.00
2022-12-06T12:52:41.920Z,3.25
2022-12-06T12:55:20.473Z,3.97
2022-12-06T12:57:50.863Z,3.65
2022-12-06T13:02:59.927Z,3.03
2022-12-06T13:05:34.646Z,3.40
2022-12-06T13:08:16.515Z,2.72
2022-12-06T13:10:46.727Z,2.67
2022-12-06T13:15:50.003Z,3.20
2022-12-06T13:18:21.521Z,2.92
2022-12-06T13:20:50.704Z,2.92
2022-12-06T13:23:20.075Z,3.17
2022-12-06T13:26:14.321Z,3.88
2022-12-06T13:28:49.744Z,3.63
2022-12-06T13:31:24.104Z,3.20
2022-12-06T13:34:02.579Z,3.47
2022-12-06T13:36:33.693Z,2.38
2022-12-06T13:39:32.654Z,3.03
2022-12-06T13:42:17.715Z,7.70
2022-12-06T13:44:50.724Z,2.60
2022-12-06T13:47:26.667Z,3.70
2022-12-06T13:50:02.152Z,18.17
2022-12-06T13:52:47.741Z,11.07
2022-12-06T13:55:24.008Z,8.30
2022-12-06T14:00:29.928Z,1.90
2022-12-06T14:02:58.566Z,2.40
2022-12-06T14:11:26.668Z,5.15
2022-12-06T14:13:57.372Z,24.55
2022-12-06T14:16:38.849Z,14.77
2022-12-06T14:19:21.235Z,13.65
2022-12-06T14:22:22.212Z,4.72
2022-12-06T14:25:02.549Z,5.55
2022-12-06T14:27:31.952Z,3.17
2022-12-06T14:30:24.876Z,4.07
2022-12-06T14:32:55.103Z,5.43
2022-12-06T14:35:23.136Z,3.03
2022-12-06T14:38:01.879Z,4.15
2022-12-06T14:40:56.174Z,3.63
2022-12-06T14:43:25.824Z,3.88
2022-12-06T14:45:53.959Z,3.90
2022-12-06T14:48:22.558Z,4.68
2022-12-06T14:50:59.346Z,6.38
2022-12-06T14:53:31.677Z,5.55
2022-12-06T14:56:04.737Z,3.38
2022-12-06T14:58:33.878Z,4.47
2022-12-06T15:01:22.031Z,3.97
2022-12-06T15:04:07.870Z,3.00
2022-12-06T15:06:36.672Z,4.05
2022-12-06T15:09:15.547Z,3.25
2022-12-06T15:12:02.514Z,3.45
2022-12-06T15:14:46.806Z,23.25
2022-12-06T15:17:18.044Z,17.20
2022-12-06T15:19:53.564Z,18.30
2022-12-06T15:22:25.322Z,14.55
2022-12-06T15:24:55.467Z,37.38
2022-12-06T15:27:26.583Z,17.33
2022-12-06T15:29:53.769Z,10.73
2022-12-06T15:32:24.990Z,10.10
2022-12-06T15:34:51.962Z,6.93
2022-12-06T15:37:50.296Z,7.78
2022-12-06T15:40:06.682Z,11.52
2022-12-06T15:42:33.661Z,9.73
2022-12-06T15:45:01.146Z,6.75
2022-12-06T15:47:28.306Z,6.90
2022-12-06T15:49:58.026Z,3.35
2022-12-06T15:52:26.057Z,2.17
2022-12-06T15:54:53.169Z,2.03
2022-12-06T15:57:20.397Z,2.65
2022-12-06T15:59:47.490Z,2.50
2022-12-06T16:02:17.196Z,5.47
2022-12-06T16:04:44.975Z,2.50
2022-12-06T16:07:18.668Z,3.38
2022-12-06T16:09:46.840Z,3.88
2022-12-06T16:12:14.126Z,11.38
2022-12-06T16:14:41.722Z,4.45
2022-12-06T16:17:09.102Z,4.65
2022-12-06T16:19:55.481Z,6.55
2022-12-06T16:22:42.274Z,6.88
2022-12-06T16:25:09.751Z,8.35
2022-12-06T16:27:37.091Z,7.13
2022-12-06T16:30:05.545Z,6.03
2022-12-06T16:32:33.078Z,5.15
2022-12-06T16:35:00.773Z,2.92
2022-12-06T16:37:27.913Z,3.15
2022-12-06T16:39:54.842Z,2.72
2022-12-06T16:42:21.691Z,2.13
2022-12-06T16:44:51.692Z,3.08
2022-12-06T16:47:18.645Z,3.28
2022-12-06T16:49:47.927Z,3.50
2022-12-06T16:52:16.789Z,2.08
2022-12-06T16:54:44.175Z,3.22
2022-12-06T16:57:12.073Z,2.28
2022-12-06T16:59:38.990Z,2.95
2022-12-06T17:02:19.482Z,6.15
2022-12-06T17:04:46.298Z,4.85
2022-12-06T17:07:13.522Z,5.75
2022-12-06T17:09:40.466Z,5.43
2022-12-06T17:12:12.787Z,5.75
2022-12-06T17:14:40.578Z,5.55
2022-12-06T17:17:12.766Z,5.03
2022-12-06T17:19:39.854Z,4.90
2022-12-06T17:22:07.245Z,5.68
2022-12-06T17:24:34.243Z,5.43
2022-12-06T17:27:01.583Z,4.60
2022-12-06T17:29:28.753Z,4.65
2022-12-06T17:31:56.365Z,5.07
2022-12-06T17:34:25.606Z,3.83
2022-12-06T17:36:53.027Z,2.33
2022-12-06T17:39:21.014Z,1.90
2022-12-06T17:42:07.422Z,1.50
2022-12-06T17:44:34.386Z,1.67
2022-12-06T17:47:02.276Z,1.40
2022-12-06T17:49:29.605Z,1.30
2022-12-06T17:51:57.061Z,1.55
2022-12-06T17:54:24.599Z,1.88
2022-12-06T17:56:53.816Z,1.67
2022-12-06T17:59:23.948Z,1.77
2022-12-06T18:02:14.232Z,1.77
2022-12-06T18:04:38.924Z,2.70
2022-12-06T18:07:06.390Z,2.83
2022-12-06T18:09:33.772Z,2.47
2022-12-06T18:12:01.297Z,1.90
2022-12-06T18:14:29.309Z,1.75
2022-12-06T18:16:56.810Z,1.98
2022-12-06T18:19:24.396Z,1.60
2022-12-06T18:21:52.977Z,2.20
2022-12-06T18:24:23.203Z,2.05
2022-12-06T18:26:51.942Z,2.05
2022-12-06T18:29:21.079Z,2.10
2022-12-06T18:31:48.822Z,2.53
2022-12-06T18:34:16.284Z,2.60
2022-12-06T18:36:43.591Z,2.20
2022-12-06T18:39:15.453Z,3.15
2022-12-06T18:41:43.950Z,8.40
2022-12-06T18:44:11.962Z,3.30
2022-12-06T18:46:41.105Z,5.20
2022-12-06T18:49:10.614Z,3.53
2022-12-06T18:51:38.679Z,2.42
2022-12-06T18:54:06.811Z,20.77
2022-12-06T18:56:35.218Z,5.75
2022-12-06T18:59:04.951Z,2.90
2022-12-06T19:01:34.007Z,2.20
2022-12-06T19:04:05.628Z,8.75
2022-12-06T19:06:35.779Z,5.47
2022-12-06T19:09:09.894Z,4.07
2022-12-06T19:11:42.472Z,2.90
2022-12-06T19:14:10.125Z,4.82
2022-12-06T19:16:42.451Z,14.13
2022-12-06T19:19:21.701Z,7.82
2022-12-06T19:21:49.863Z,4.28
2022-12-06T19:24:21.683Z,3.80
2022-12-06T19:26:51.581Z,4.05
2022-12-06T19:29:19.160Z,7.97
2022-12-06T19:31:45.995Z,3.33
2022-12-06T19:34:18.744Z,2.95
2022-12-06T19:36:47.839Z,2.88
2022-12-06T19:39:14.863Z,2.95
2022-12-06T19:42:01.170Z,7.90
2022-12-06T19:44:29.235Z,9.55
2022-12-06T19:46:56.877Z,11.82
2022-12-06T19:49:25.529Z,5.22
2022-12-06T19:51:52.712Z,26.45
2022-12-06T19:54:29.173Z,10.30
2022-12-06T19:56:58.247Z,20.63
2022-12-06T19:59:34.083Z,9.27
2022-12-06T20:02:01.437Z,6.70
2022-12-06T20:04:31.432Z,4.63
2022-12-06T20:06:59.208Z,3.65
2022-12-06T20:09:28.319Z,7.90
2022-12-06T20:12:03.742Z,3.92
2022-12-06T20:14:36.501Z,3.15
2022-12-06T20:17:05.952Z,4.80
2022-12-06T20:19:33.982Z,5.20
2022-12-06T20:22:01.400Z,5.30
2022-12-06T20:24:28.813Z,4.40
2022-12-06T20:26:56.528Z,4.45
2022-12-06T20:29:23.958Z,7.90
2022-12-06T20:31:51.479Z,6.38
2022-12-06T20:34:19.699Z,5.28
2022-12-06T20:36:47.407Z,4.85
2022-12-06T20:39:20.336Z,3.88
2022-12-06T20:41:48.403Z,4.38
2022-12-06T20:44:15.943Z,3.22
2022-12-06T20:46:43.479Z,2.95
2022-12-06T20:49:10.544Z,2.95
2022-12-06T20:51:37.699Z,2.95
2022-12-06T20:54:06.417Z,2.60
2022-12-06T20:56:36.772Z,2.88
2022-12-06T20:59:04.284Z,4.50
2022-12-06T21:01:39.775Z,4.65
2022-12-06T21:04:15.839Z,3.70
2022-12-06T21:07:19.361Z,4.25
2022-12-06T21:13:13.649Z,3.42
2022-12-06T21:15:54.036Z,3.70
2022-12-06T21:18:30.944Z,4.00
2022-12-06T21:21:17.254Z,2.80
2022-12-06T21:23:51.076Z,2.85
2022-12-06T21:26:26.065Z,3.08
2022-12-06T21:29:07.185Z,3.10
2022-12-06T21:35:44.345Z,3.20
2022-12-06T21:38:31.207Z,2.70
2022-12-06T21:42:01.640Z,2.88
2022-12-06T21:47:19.610Z,3.28
2022-12-06T21:57:57.749Z,3.28
2022-12-06T22:30:34.857Z,3.45
2022-12-06T22:33:11.233Z,3.40
2022-12-06T22:35:41.709Z,2.58
2022-12-06T22:38:17.328Z,2.97
2022-12-06T22:41:01.253Z,2.78
2022-12-06T22:43:40.261Z,3.13
2022-12-06T22:46:46.466Z,3.22
2022-12-06T22:49:19.742Z,3.47
2022-12-06T22:52:10.648Z,2.95
2022-12-06T22:55:44.777Z,3.17
2022-12-06T22:58:50.296Z,3.17
2022-12-06T23:01:23.689Z,3.20
2022-12-06T23:03:58.564Z,4.30
2022-12-06T23:07:00.229Z,4.47
2022-12-06T23:10:12.014Z,3.28
2022-12-06T23:13:19.825Z,3.78
2022-12-06T23:18:50.754Z,4.18
2022-12-06T23:21:39.735Z,4.43
2022-12-06T23:27:10.258Z,5.18
2022-12-06T23:30:04.124Z,3.90
2022-12-06T23:32:32.058Z,4.45
2022-12-06T23:35:06.878Z,5.15
2022-12-06T23:38:01.197Z,4.10
2022-12-06T23:43:50.747Z,4.97
2022-12-06T23:49:44.597Z,4.00
2022-12-06T23:59:22.870Z,4.63
